Time;durP1;ratioP1;P1;durP2;ratioP2;P2;SDS_P1;SDS_P2;PMS_P1;PMS_P2;Temp;Humidity;BMP_temperature;BMP_pressure;BME280_temperature;BME280_humidity;BME280_pressure;Samples;Min_cycle;Max_cycle;Signal;HPM_P1;HPM_P2
2021/12/07 00:02:06;;;;;;;31.98;18.55;;;;;;;;;;5094164;28;20378;-64
2021/12/07 00:04:32;;;;;;;31.25;18.52;;;;;;;;;;5095102;28;20023;-64
2021/12/07 00:06:58;;;;;;;31.40;18.40;;;;;;;;;;5094827;28;20044;-63
2021/12/07 00:09:24;;;;;;;32.03;18.50;;;;;;;;;;5094513;28;20051;-65
2021/12/07 00:11:51;;;;;;;38.20;20.23;;;;;;;;;;5094607;28;20030;-64
2021/12/07 00:14:26;;;;;;;34.25;19.60;;;;;;;;;;5094713;28;20028;-64
2021/12/07 00:16:53;;;;;;;36.88;19.80;;;;;;;;;;5092481;28;20016;-64
2021/12/07 00:19:19;;;;;;;36.28;19.38;;;;;;;;;;5093300;28;20345;-65
2021/12/07 00:21:45;;;;;;;33.08;18.75;;;;;;;;;;5081943;28;20021;-64
2021/12/07 00:24:12;;;;;;;31.38;18.90;;;;;;;;;;5093732;28;20126;-64
2021/12/07 00:26:40;;;;;;;33.05;18.27;;;;;;;;;;5093636;28;20118;-64
2021/12/07 00:29:07;;;;;;;31.40;18.38;;;;;;;;;;5095682;28;20028;-64
2021/12/07 00:31:41;;;;;;;32.80;19.08;;;;;;;;;;5095248;28;20461;-64
2021/12/07 00:36:38;;;;;;;34.15;19.85;;;;;;;;;;5095578;28;20034;-64
2021/12/07 00:39:06;;;;;;;35.60;19.20;;;;;;;;;;5094330;28;20032;-63
2021/12/07 00:41:33;;;;;;;38.72;20.77;;;;;;;;;;5094158;28;20310;-63
2021/12/07 00:44:01;;;;;;;38.28;20.27;;;;;;;;;;5094137;28;20035;-64
2021/12/07 00:46:27;;;;;;;42.55;21.48;;;;;;;;;;5095478;28;20038;-64
2021/12/07 00:48:54;;;;;;;39.33;19.58;;;;;;;;;;5095655;28;20035;-64
2021/12/07 00:51:20;;;;;;;39.25;21.55;;;;;;;;;;5095282;28;20055;-64
2021/12/07 00:53:46;;;;;;;40.60;22.23;;;;;;;;;;5095296;28;20032;-64
2021/12/07 00:56:13;;;;;;;41.17;21.45;;;;;;;;;;5095198;28;20118;-64
2021/12/07 00:58:39;;;;;;;39.60;21.25;;;;;;;;;;5094905;28;20020;-63
2021/12/07 01:01:06;;;;;;;38.92;21.50;;;;;;;;;;5093817;28;20030;-64
2021/12/07 01:03:33;;;;;;;37.35;21.13;;;;;;;;;;5095111;28;20114;-64
2021/12/07 01:06:18;;;;;;;38.33;21.77;;;;;;;;;;5093688;28;20051;-64
2021/12/07 01:25:09;;;;;;;40.10;21.48;;;;;;;;;;5074369;28;20035;-64
2021/12/07 01:27:35;;;;;;;42.22;21.92;;;;;;;;;;5094597;28;20020;-64
2021/12/07 01:32:45;;;;;;;40.53;21.42;;;;;;;;;;5094418;28;20038;-64
2021/12/07 01:51:29;;;;;;;48.03;24.65;;;;;;;;;;5094237;28;20105;-64
2021/12/07 01:59:33;;;;;;;54.42;28.45;;;;;;;;;;5094081;28;20101;-64
2021/12/07 02:02:11;;;;;;;58.47;29.42;;;;;;;;;;5094027;28;20050;-65
2021/12/07 02:04:38;;;;;;;50.47;27.00;;;;;;;;;;5093586;28;20472;-65
2021/12/07 02:07:16;;;;;;;54.00;28.85;;;;;;;;;;5093850;28;20028;-64
2021/12/07 02:09:47;;;;;;;48.78;26.17;;;;;;;;;;5092514;28;20020;-64
2021/12/07 02:12:14;;;;;;;52.65;27.92;;;;;;;;;;5093818;28;20028;-64
2021/12/07 02:14:41;;;;;;;53.85;26.35;;;;;;;;;;5093774;28;20024;-64
2021/12/07 02:17:09;;;;;;;52.85;26.15;;;;;;;;;;5092373;28;20536;-64
2021/12/07 02:19:35;;;;;;;56.42;27.00;;;;;;;;;;5092344;28;20027;-64
2021/12/07 02:22:02;;;;;;;53.00;26.92;;;;;;;;;;5093631;28;20032;-64
2021/12/07 02:24:28;;;;;;;56.65;26.75;;;;;;;;;;5091731;28;20054;-64
2021/12/07 02:26:55;;;;;;;56.97;27.65;;;;;;;;;;5093550;28;20111;-65
2021/12/07 02:29:23;;;;;;;51.97;25.92;;;;;;;;;;5093732;28;20071;-64
2021/12/07 02:31:50;;;;;;;51.25;26.30;;;;;;;;;;5093352;28;20497;-64
2021/12/07 02:34:17;;;;;;;48.63;25.73;;;;;;;;;;5093141;28;20082;-64
2021/12/07 02:36:44;;;;;;;53.72;26.55;;;;;;;;;;5093392;28;20189;-63
2021/12/07 02:39:11;;;;;;;55.72;26.05;;;;;;;;;;5093364;28;20372;-64
2021/12/07 02:41:38;;;;;;;50.13;25.35;;;;;;;;;;5093340;28;20573;-64
2021/12/07 02:44:06;;;;;;;50.40;24.95;;;;;;;;;;5092983;28;20024;-64
2021/12/07 02:46:33;;;;;;;54.20;26.40;;;;;;;;;;5092018;28;20139;-64
2021/12/07 02:48:59;;;;;;;58.03;27.35;;;;;;;;;;5092765;28;20046;-64
2021/12/07 02:51:25;;;;;;;50.67;25.75;;;;;;;;;;5093174;28;20376;-63
2021/12/07 02:53:54;;;;;;;57.35;25.52;;;;;;;;;;5093201;28;20032;-64
2021/12/07 02:56:20;;;;;;;51.63;25.33;;;;;;;;;;5093215;28;20103;-63
2021/12/07 02:58:46;;;;;;;51.33;25.13;;;;;;;;;;5091798;28;20115;-63
2021/12/07 03:01:19;;;;;;;54.22;25.80;;;;;;;;;;5093109;28;20028;-63
2021/12/07 03:04:33;;;;;;;52.75;25.13;;;;;;;;;;5093241;28;20036;-64
2021/12/07 03:07:14;;;;;;;62.00;28.85;;;;;;;;;;5086963;28;20032;-64
2021/12/07 03:26:07;;;;;;;58.17;26.48;;;;;;;;;;5092900;28;20096;-64
2021/12/07 03:28:35;;;;;;;58.05;26.70;;;;;;;;;;5091589;28;20027;-65
2021/12/07 03:31:03;;;;;;;51.60;24.83;;;;;;;;;;5092837;28;20025;-64
2021/12/07 03:33:29;;;;;;;56.13;26.92;;;;;;;;;;5092722;28;20032;-64
2021/12/07 03:35:55;;;;;;;56.40;26.05;;;;;;;;;;5093234;28;20067;-64
2021/12/07 03:38:22;;;;;;;52.65;25.70;;;;;;;;;;5095461;28;20024;-63
2021/12/07 03:40:48;;;;;;;51.67;23.85;;;;;;;;;;5096955;28;20024;-63
2021/12/07 03:43:15;;;;;;;45.88;23.85;;;;;;;;;;5096872;28;20472;-63
2021/12/07 03:45:41;;;;;;;49.70;23.83;;;;;;;;;;5095341;28;20020;-64
2021/12/07 03:48:09;;;;;;;54.47;26.42;;;;;;;;;;5096588;28;20480;-63
2021/12/07 03:50:35;;;;;;;50.85;25.50;;;;;;;;;;5096429;28;20127;-64
2021/12/07 03:53:02;;;;;;;51.40;24.25;;;;;;;;;;5096442;28;20028;-64
2021/12/07 03:55:30;;;;;;;47.42;24.25;;;;;;;;;;5095128;28;20519;-65
2021/12/07 03:57:57;;;;;;;54.33;25.52;;;;;;;;;;5095037;28;20123;-64
2021/12/07 04:00:24;;;;;;;52.70;24.90;;;;;;;;;;5096288;28;20024;-64
2021/12/07 04:02:53;;;;;;;54.35;25.30;;;;;;;;;;5096240;28;20103;-63
2021/12/07 04:05:21;;;;;;;54.22;25.77;;;;;;;;;;5096301;28;20031;-63
2021/12/07 04:07:48;;;;;;;60.58;25.70;;;;;;;;;;5094791;28;20067;-64
2021/12/07 04:10:15;;;;;;;55.67;25.58;;;;;;;;;;5095824;28;20476;-64
2021/12/07 04:12:42;;;;;;;55.95;26.33;;;;;;;;;;5094680;28;20028;-64
2021/12/07 04:15:09;;;;;;;57.70;27.25;;;;;;;;;;5094731;28;20020;-64
2021/12/07 04:17:35;;;;;;;48.50;25.08;;;;;;;;;;5095940;28;20461;-63
2021/12/07 04:20:02;;;;;;;50.35;24.90;;;;;;;;;;5095903;28;20032;-64
2021/12/07 04:22:28;;;;;;;54.10;26.33;;;;;;;;;;5095882;28;20036;-64
2021/12/07 04:24:55;;;;;;;49.13;24.83;;;;;;;;;;5095525;28;20392;-64
2021/12/07 04:27:21;;;;;;;54.78;24.92;;;;;;;;;;5095809;28;20024;-64
2021/12/07 04:29:48;;;;;;;51.67;25.90;;;;;;;;;;5095442;28;20418;-64
2021/12/07 04:32:14;;;;;;;53.35;24.58;;;;;;;;;;5095631;28;20081;-65
2021/12/07 04:34:40;;;;;;;57.85;26.20;;;;;;;;;;5094266;28;20455;-64
2021/12/07 04:37:06;;;;;;;52.42;26.33;;;;;;;;;;5094299;28;20034;-64
2021/12/07 04:39:33;;;;;;;49.80;24.38;;;;;;;;;;5094245;28;20107;-64
2021/12/07 04:41:59;;;;;;;48.13;23.77;;;;;;;;;;5095533;28;20030;-64
2021/12/07 04:44:27;;;;;;;54.25;26.23;;;;;;;;;;5095480;28;20428;-65
2021/12/07 04:47:11;;;;;;;55.58;26.48;;;;;;;;;;5094951;28;20029;-63
2021/12/07 04:50:05;;;;;;;53.47;26.15;;;;;;;;;;5095111;28;20488;-63
2021/12/07 04:58:00;;;;;;;51.83;25.90;;;;;;;;;;5095208;28;20031;-63
2021/12/07 05:00:27;;;;;;;55.08;26.67;;;;;;;;;;5093884;28;20035;-64
2021/12/07 05:02:58;;;;;;;49.22;25.08;;;;;;;;;;5095131;28;20028;-63
2021/12/07 05:05:29;;;;;;;52.90;26.00;;;;;;;;;;5095203;28;20066;-63
2021/12/07 05:07:59;;;;;;;58.58;27.23;;;;;;;;;;5095103;28;20046;-63
2021/12/07 05:10:34;;;;;;;55.63;26.45;;;;;;;;;;5095039;28;20057;-63
2021/12/07 05:13:24;;;;;;;55.20;25.95;;;;;;;;;;5094912;28;20464;-64
2021/12/07 05:39:54;;;;;;;56.20;27.10;;;;;;;;;;5094105;28;20438;-64
2021/12/07 05:42:22;;;;;;;60.38;28.70;;;;;;;;;;5092852;28;20028;-64
2021/12/07 05:44:49;;;;;;;64.53;30.90;;;;;;;;;;5092887;28;20113;-64
2021/12/07 05:47:15;;;;;;;66.28;32.95;;;;;;;;;;5092951;28;20024;-64
2021/12/07 05:49:42;;;;;;;61.65;29.77;;;;;;;;;;5094011;28;20051;-64
2021/12/07 05:52:08;;;;;;;63.40;32.17;;;;;;;;;;5092818;28;20449;-64
2021/12/07 05:54:34;;;;;;;63.40;31.77;;;;;;;;;;5092689;28;20030;-63
2021/12/07 05:57:00;;;;;;;65.95;32.13;;;;;;;;;;5094015;28;20103;-64
2021/12/07 05:59:26;;;;;;;69.45;32.53;;;;;;;;;;5092715;28;20399;-64
2021/12/07 06:01:53;;;;;;;71.72;32.35;;;;;;;;;;5093833;28;20508;-64
2021/12/07 06:04:19;;;;;;;62.88;30.58;;;;;;;;;;5093784;28;20024;-63
2021/12/07 06:06:46;;;;;;;67.72;32.95;;;;;;;;;;5093705;28;20048;-64
2021/12/07 06:09:13;;;;;;;65.03;33.40;;;;;;;;;;5092426;28;20028;-66
2021/12/07 06:11:40;;;;;;;68.90;32.35;;;;;;;;;;5093799;28;20032;-64
2021/12/07 06:14:06;;;;;;;73.53;35.85;;;;;;;;;;5093584;28;20020;-65
2021/12/07 06:16:32;;;;;;;68.10;33.67;;;;;;;;;;5093323;28;20097;-65
2021/12/07 06:18:59;;;;;;;72.22;35.42;;;;;;;;;;5093600;28;20052;-65
2021/12/07 06:21:26;;;;;;;67.82;34.50;;;;;;;;;;5093799;28;20449;-65
2021/12/07 06:23:53;;;;;;;62.88;33.22;;;;;;;;;;5093470;28;20365;-64
2021/12/07 06:26:20;;;;;;;65.88;33.33;;;;;;;;;;5093399;28;20490;-64
2021/12/07 06:28:46;;;;;;;68.82;33.03;;;;;;;;;;5091705;28;20051;-64
2021/12/07 06:31:12;;;;;;;65.32;33.45;;;;;;;;;;5092005;28;20067;-64
2021/12/07 06:33:38;;;;;;;73.72;37.08;;;;;;;;;;5091885;28;20036;-64
2021/12/07 06:36:06;;;;;;;71.03;34.80;;;;;;;;;;5093249;28;20020;-63
2021/12/07 06:38:33;;;;;;;70.90;37.22;;;;;;;;;;5093366;28;20024;-65
2021/12/07 06:41:00;;;;;;;74.50;35.83;;;;;;;;;;5093500;28;20032;-63
2021/12/07 06:43:26;;;;;;;76.88;37.22;;;;;;;;;;5091837;28;20096;-64
2021/12/07 06:45:53;;;;;;;76.40;39.63;;;;;;;;;;5093187;28;20031;-64
2021/12/07 06:48:19;;;;;;;82.18;44.63;;;;;;;;;;5093032;28;20035;-64
2021/12/07 06:50:45;;;;;;;79.95;39.67;;;;;;;;;;5091680;28;20408;-63
2021/12/07 06:53:12;;;;;;;85.30;40.72;;;;;;;;;;5092945;28;20075;-63
2021/12/07 06:55:38;;;;;;;90.05;45.42;;;;;;;;;;5093001;28;20443;-63
2021/12/07 06:58:05;;;;;;;88.65;43.65;;;;;;;;;;5093022;28;20516;-64
2021/12/07 07:00:31;;;;;;;78.50;39.80;;;;;;;;;;5091683;28;20032;-63
2021/12/07 07:02:57;;;;;;;79.40;37.38;;;;;;;;;;5091583;28;20032;-63
2021/12/07 07:05:24;;;;;;;74.28;37.30;;;;;;;;;;5091620;28;20035;-63
2021/12/07 07:07:50;;;;;;;69.85;36.78;;;;;;;;;;5092509;28;20101;-63
2021/12/07 07:10:17;;;;;;;75.65;36.85;;;;;;;;;;5095220;28;20193;-63
2021/12/07 07:12:44;;;;;;;72.82;38.30;;;;;;;;;;5095499;28;20103;-63
2021/12/07 07:15:10;;;;;;;80.47;40.30;;;;;;;;;;5095637;28;20533;-63
2021/12/07 07:17:37;;;;;;;70.93;36.60;;;;;;;;;;5097145;28;20102;-63
2021/12/07 07:20:05;;;;;;;74.80;39.42;;;;;;;;;;5097062;28;20072;-64
2021/12/07 07:22:31;;;;;;;85.05;45.58;;;;;;;;;;5096716;28;20107;-63
2021/12/07 07:24:57;;;;;;;77.00;37.85;;;;;;;;;;5096840;28;20024;-63
2021/12/07 07:27:24;;;;;;;76.43;37.72;;;;;;;;;;5095662;28;20365;-64
2021/12/07 07:29:50;;;;;;;73.15;36.90;;;;;;;;;;5095534;28;20024;-63
2021/12/07 07:32:19;;;;;;;76.95;39.92;;;;;;;;;;5095420;28;20040;-63
2021/12/07 07:34:45;;;;;;;76.13;37.30;;;;;;;;;;5095478;28;20111;-63
2021/12/07 07:37:12;;;;;;;78.32;37.70;;;;;;;;;;5096819;28;20035;-63
2021/12/07 07:39:39;;;;;;;69.57;36.53;;;;;;;;;;5096743;28;20047;-63
2021/12/07 07:42:05;;;;;;;75.45;36.83;;;;;;;;;;5095288;28;20032;-64
2021/12/07 07:44:32;;;;;;;81.50;38.25;;;;;;;;;;5096629;28;20032;-64
2021/12/07 07:46:58;;;;;;;76.85;38.95;;;;;;;;;;5096329;28;20388;-63
2021/12/07 07:49:24;;;;;;;84.30;40.65;;;;;;;;;;5090176;28;20048;-63
2021/12/07 07:51:51;;;;;;;79.90;38.28;;;;;;;;;;5076180;28;20037;-63
2021/12/07 07:54:17;;;;;;;98.22;44.97;;;;;;;;;;5076385;28;20083;-64
2021/12/07 07:56:44;;;;;;;93.55;44.10;;;;;;;;;;5076035;28;20025;-63
2021/12/07 07:59:10;;;;;;;91.20;42.08;;;;;;;;;;5075779;28;20385;-64
2021/12/07 08:01:37;;;;;;;84.72;41.20;;;;;;;;;;5058015;28;20032;-63
2021/12/07 08:04:04;;;;;;;92.80;42.72;;;;;;;;;;5057970;28;20035;-63
2021/12/07 08:06:30;;;;;;;84.15;41.13;;;;;;;;;;5075422;28;20016;-65
2021/12/07 08:08:57;;;;;;;72.90;35.42;;;;;;;;;;5075413;28;20108;-62
2021/12/07 08:11:24;;;;;;;82.07;37.60;;;;;;;;;;5075790;28;20090;-63
2021/12/07 08:13:50;;;;;;;75.90;38.50;;;;;;;;;;5075633;28;20207;-64
2021/12/07 08:16:16;;;;;;;86.13;41.30;;;;;;;;;;5057588;28;20146;-65
2021/12/07 08:18:46;;;;;;;87.25;41.70;;;;;;;;;;5075737;28;20028;-63
2021/12/07 08:21:13;;;;;;;76.30;38.13;;;;;;;;;;5056614;28;20104;-63
2021/12/07 08:23:39;;;;;;;92.13;44.70;;;;;;;;;;5075519;28;20063;-65
2021/12/07 08:26:06;;;;;;;94.13;47.00;;;;;;;;;;5075507;28;20449;-65
2021/12/07 08:28:33;;;;;;;91.63;47.13;;;;;;;;;;5057587;28;20078;-63
2021/12/07 08:30:59;;;;;;;84.18;42.95;;;;;;;;;;5075430;28;20392;-65
2021/12/07 08:33:25;;;;;;;76.40;39.33;;;;;;;;;;5075277;28;20128;-63
2021/12/07 08:35:52;;;;;;;87.40;42.03;;;;;;;;;;5075236;28;20032;-64
2021/12/07 08:38:18;;;;;;;84.80;41.05;;;;;;;;;;5075244;28;20028;-63
2021/12/07 08:40:45;;;;;;;72.45;39.35;;;;;;;;;;5057156;28;20491;-64
2021/12/07 08:43:14;;;;;;;94.78;45.35;;;;;;;;;;5075206;28;20469;-64
2021/12/07 08:45:42;;;;;;;100.28;47.67;;;;;;;;;;5075093;28;20063;-63
2021/12/07 08:48:08;;;;;;;90.57;44.17;;;;;;;;;;5075159;28;20036;-63
2021/12/07 08:50:35;;;;;;;96.35;48.00;;;;;;;;;;5053271;28;20458;-64
2021/12/07 08:53:05;;;;;;;86.53;40.80;;;;;;;;;;5054983;28;20032;-64
2021/12/07 09:01:03;;;;;;;87.55;39.92;;;;;;;;;;5054903;28;20036;-64
2021/12/07 09:03:29;;;;;;;89.40;42.80;;;;;;;;;;5054808;28;20033;-64
2021/12/07 09:05:55;;;;;;;76.38;38.40;;;;;;;;;;5054803;28;20025;-64
2021/12/07 09:08:21;;;;;;;70.38;36.95;;;;;;;;;;5054725;28;20033;-64
2021/12/07 09:10:48;;;;;;;82.05;41.40;;;;;;;;;;5054692;28;20056;-63
2021/12/07 09:13:14;;;;;;;78.97;39.10;;;;;;;;;;5054220;28;20429;-63
2021/12/07 09:15:40;;;;;;;87.93;41.03;;;;;;;;;;5053279;28;20031;-63
2021/12/07 09:18:07;;;;;;;78.57;38.20;;;;;;;;;;5054604;28;20051;-63
2021/12/07 09:20:33;;;;;;;98.93;46.88;;;;;;;;;;5054534;28;20480;-63
2021/12/07 09:22:59;;;;;;;82.45;38.17;;;;;;;;;;5054603;28;20036;-63
2021/12/07 09:25:26;;;;;;;82.57;39.22;;;;;;;;;;5053143;28;20466;-64
2021/12/07 09:27:52;;;;;;;82.68;39.05;;;;;;;;;;5054491;28;20155;-63
2021/12/07 09:30:19;;;;;;;78.40;38.88;;;;;;;;;;5054628;28;20025;-66
2021/12/07 09:32:45;;;;;;;77.78;38.85;;;;;;;;;;5054027;28;20029;-63
2021/12/07 09:35:12;;;;;;;78.30;40.03;;;;;;;;;;5054178;28;20024;-63
2021/12/07 09:37:39;;;;;;;76.65;40.00;;;;;;;;;;5054168;28;20112;-63
2021/12/07 09:40:10;;;;;;;73.50;39.28;;;;;;;;;;5054065;28;20026;-63
2021/12/07 09:42:37;;;;;;;74.35;37.28;;;;;;;;;;5054265;28;20576;-63
2021/12/07 09:45:04;;;;;;;72.80;36.60;;;;;;;;;;5052663;28;20037;-63
2021/12/07 09:47:38;;;;;;;75.72;35.58;;;;;;;;;;5053615;28;20106;-64
2021/12/07 09:50:05;;;;;;;72.13;35.35;;;;;;;;;;5063565;28;20048;-64
2021/12/07 09:52:31;;;;;;;75.15;35.55;;;;;;;;;;5073741;28;20115;-63
2021/12/07 09:54:58;;;;;;;71.95;35.00;;;;;;;;;;5073771;28;20021;-63
2021/12/07 09:57:24;;;;;;;72.40;35.97;;;;;;;;;;5073694;28;20028;-64
2021/12/07 09:59:51;;;;;;;76.93;39.28;;;;;;;;;;5073729;28;20027;-63
2021/12/07 10:02:18;;;;;;;76.05;38.08;;;;;;;;;;5055639;28;20038;-63
2021/12/07 10:04:44;;;;;;;75.57;40.17;;;;;;;;;;5073659;28;20047;-63
2021/12/07 10:07:11;;;;;;;72.43;35.38;;;;;;;;;;5073549;28;20131;-62
2021/12/07 10:09:38;;;;;;;71.65;36.53;;;;;;;;;;5073591;28;20032;-63
2021/12/07 10:12:05;;;;;;;103.88;53.53;;;;;;;;;;5073669;28;20594;-63
2021/12/07 10:14:38;;;;;;;70.70;36.05;;;;;;;;;;5073185;28;20028;-63
2021/12/07 10:17:05;;;;;;;77.05;39.47;;;;;;;;;;5053461;28;20074;-63
2021/12/07 10:19:32;;;;;;;70.70;36.47;;;;;;;;;;5055268;28;20535;-65
2021/12/07 10:22:01;;;;;;;67.50;34.85;;;;;;;;;;5071882;28;20396;-64
2021/12/07 10:24:35;;;;;;;68.30;34.88;;;;;;;;;;5055067;28;20468;-63
2021/12/07 10:27:08;;;;;;;75.88;37.80;;;;;;;;;;5069452;28;20033;-64
2021/12/07 10:29:36;;;;;;;71.40;39.33;;;;;;;;;;5066099;28;20025;-65
2021/12/07 10:32:05;;;;;;;67.13;35.13;;;;;;;;;;5071835;28;20025;-64
2021/12/07 10:34:35;;;;;;;65.97;35.70;;;;;;;;;;5055087;28;20033;-64
2021/12/07 10:37:12;;;;;;;63.53;34.15;;;;;;;;;;5072903;28;20031;-65
2021/12/07 10:39:40;;;;;;;74.78;34.45;;;;;;;;;;5072967;28;20139;-66
2021/12/07 10:42:09;;;;;;;72.80;38.22;;;;;;;;;;5072893;28;20089;-65
2021/12/07 10:44:37;;;;;;;71.22;36.65;;;;;;;;;;5072129;28;20056;-65
2021/12/07 10:47:05;;;;;;;73.05;34.72;;;;;;;;;;5072654;28;20051;-66
2021/12/07 10:49:42;;;;;;;66.57;34.80;;;;;;;;;;5072374;28;20094;-65
2021/12/07 10:52:34;;;;;;;74.55;34.85;;;;;;;;;;5072601;28;20123;-64
2021/12/07 10:55:03;;;;;;;71.15;34.58;;;;;;;;;;5066879;28;20427;-64
2021/12/07 10:57:32;;;;;;;72.22;35.35;;;;;;;;;;5073014;28;20056;-63
2021/12/07 11:00:01;;;;;;;75.88;38.78;;;;;;;;;;5072773;28;20465;-63
2021/12/07 11:02:31;;;;;;;73.78;40.95;;;;;;;;;;5054706;28;20189;-63
2021/12/07 11:04:58;;;;;;;70.68;36.47;;;;;;;;;;5072330;28;20373;-62
2021/12/07 11:07:25;;;;;;;75.18;38.13;;;;;;;;;;5054606;28;20021;-66
2021/12/07 11:10:20;;;;;;;65.15;33.40;;;;;;;;;;5072662;28;20032;-64
2021/12/07 11:13:35;;;;;;;86.68;42.50;;;;;;;;;;5071502;28;20048;-66
2021/12/07 11:15:36;;;;;;;67.28;34.15;;;;;;;;;;5064460;28;20082;-63
2021/12/07 11:18:04;;;;;;;86.60;42.97;;;;;;;;;;5072329;28;20105;-64
2021/12/07 11:20:32;;;;;;;88.05;43.70;;;;;;;;;;5072746;28;20499;-64
2021/12/07 11:23:04;;;;;;;72.03;38.05;;;;;;;;;;5072249;28;20131;-66
2021/12/07 11:31:30;;;;;;;68.15;36.03;;;;;;;;;;5055682;28;20039;-64
2021/12/07 11:34:04;;;;;;;79.80;40.75;;;;;;;;;;5072397;28;20044;-63
2021/12/07 11:36:33;;;;;;;73.47;38.80;;;;;;;;;;5072630;28;20025;-63
2021/12/07 11:38:59;;;;;;;85.10;39.85;;;;;;;;;;5072275;28;20052;-63
2021/12/07 11:41:31;;;;;;;70.95;36.17;;;;;;;;;;5054128;28;20021;-63
2021/12/07 11:44:06;;;;;;;88.57;40.70;;;;;;;;;;5072147;28;20024;-63
2021/12/07 11:46:33;;;;;;;79.05;39.72;;;;;;;;;;5071398;28;20123;-64
2021/12/07 11:49:10;;;;;;;68.32;34.97;;;;;;;;;;5054301;28;20024;-64
2021/12/07 11:51:37;;;;;;;59.60;32.03;;;;;;;;;;5070064;28;20036;-63
2021/12/07 11:54:03;;;;;;;56.65;29.52;;;;;;;;;;5071032;28;20518;-63
2021/12/07 11:56:30;;;;;;;59.58;31.42;;;;;;;;;;5072987;28;20013;-63
2021/12/07 11:58:57;;;;;;;65.93;34.75;;;;;;;;;;5075968;28;20044;-65
2021/12/07 12:01:23;;;;;;;64.78;34.25;;;;;;;;;;5076188;28;20036;-63
2021/12/07 12:03:49;;;;;;;67.22;35.05;;;;;;;;;;5075887;28;20062;-63
2021/12/07 12:06:18;;;;;;;74.38;37.40;;;;;;;;;;5075617;28;20630;-63
2021/12/07 12:08:44;;;;;;;53.90;27.23;;;;;;;;;;5075782;28;20027;-63
2021/12/07 12:11:17;;;;;;;87.05;42.42;;;;;;;;;;5058016;28;20425;-63
2021/12/07 12:13:51;;;;;;;73.40;37.80;;;;;;;;;;5057807;28;20028;-63
2021/12/07 12:16:25;;;;;;;87.75;43.13;;;;;;;;;;5057709;28;20028;-63
2021/12/07 12:19:07;;;;;;;66.25;34.40;;;;;;;;;;5075665;28;20473;-65
2021/12/07 12:21:39;;;;;;;76.45;35.97;;;;;;;;;;5075493;28;20029;-63
2021/12/07 12:24:16;;;;;;;68.22;34.85;;;;;;;;;;5075656;28;20086;-63
2021/12/07 12:26:45;;;;;;;61.72;31.77;;;;;;;;;;5075574;28;20033;-62
2021/12/07 12:29:19;;;;;;;68.80;34.78;;;;;;;;;;5075548;28;20078;-63
2021/12/07 12:31:49;;;;;;;65.35;35.03;;;;;;;;;;5075431;28;20051;-66
2021/12/07 12:34:21;;;;;;;58.95;30.33;;;;;;;;;;5057445;28;20093;-63
2021/12/07 12:36:47;;;;;;;;;;;;;;;;;;5075912;28;20033;-62
2021/12/07 12:39:13;;;;;;;68.22;35.97;;;;;;;;;;5075348;28;19904;-64
2021/12/07 12:41:39;;;;;;;58.63;32.65;;;;;;;;;;5075210;28;20029;-65
2021/12/07 12:44:13;;;;;;;52.47;28.00;;;;;;;;;;5075130;28;20079;-62
2021/12/07 12:46:41;;;;;;;54.80;28.63;;;;;;;;;;5075193;28;20021;-62
2021/12/07 12:49:10;;;;;;;51.75;27.77;;;;;;;;;;5057102;28;20098;-63
2021/12/07 12:51:51;;;;;;;59.60;30.35;;;;;;;;;;5075388;28;20041;-62
2021/12/07 12:54:18;;;;;;;52.83;27.83;;;;;;;;;;5075106;28;20036;-63
2021/12/07 12:56:45;;;;;;;53.50;27.17;;;;;;;;;;5075055;28;20024;-63
2021/12/07 12:59:12;;;;;;;56.75;30.77;;;;;;;;;;5075260;28;20115;-63
2021/12/07 13:01:42;;;;;;;54.72;27.92;;;;;;;;;;5074864;28;20028;-63
2021/12/07 13:04:12;;;;;;;55.38;28.73;;;;;;;;;;5075154;28;20025;-64
2021/12/07 13:06:47;;;;;;;54.03;27.55;;;;;;;;;;5074748;28;20031;-63
2021/12/07 13:09:19;;;;;;;64.10;37.00;;;;;;;;;;5074728;28;20025;-63
2021/12/07 13:11:49;;;;;;;48.15;26.08;;;;;;;;;;5074712;28;20096;-63
2021/12/07 13:14:24;;;;;;;48.63;26.17;;;;;;;;;;5074651;28;20178;-63
2021/12/07 13:16:50;;;;;;;53.13;28.23;;;;;;;;;;5074633;28;20031;-63
2021/12/07 13:19:16;;;;;;;44.90;24.27;;;;;;;;;;5056418;28;20024;-63
2021/12/07 13:21:44;;;;;;;68.18;33.88;;;;;;;;;;5074600;28;20060;-62
2021/12/07 13:24:20;;;;;;;52.05;25.85;;;;;;;;;;5072540;28;20098;-63
2021/12/07 13:26:53;;;;;;;57.38;28.45;;;;;;;;;;5074332;28;20362;-62
2021/12/07 13:29:23;;;;;;;53.85;27.00;;;;;;;;;;5073790;28;20428;-63
2021/12/07 13:31:53;;;;;;;49.50;24.47;;;;;;;;;;5054562;28;20476;-63
2021/12/07 13:34:27;;;;;;;55.08;27.00;;;;;;;;;;5036260;28;20458;-62
2021/12/07 13:36:57;;;;;;;101.82;51.97;;;;;;;;;;5036172;28;20028;-63
2021/12/07 13:39:23;;;;;;;59.25;28.23;;;;;;;;;;5049289;28;20057;-63
2021/12/07 13:41:54;;;;;;;63.40;30.48;;;;;;;;;;5054135;28;20029;-63
2021/12/07 13:44:21;;;;;;;76.30;39.70;;;;;;;;;;5054122;28;20033;-63
2021/12/07 13:46:51;;;;;;;55.78;27.27;;;;;;;;;;5053974;28;20057;-63
2021/12/07 13:49:17;;;;;;;56.97;28.30;;;;;;;;;;5058558;28;20119;-64
2021/12/07 13:51:43;;;;;;;50.05;27.73;;;;;;;;;;5073682;28;20358;-65
2021/12/07 13:54:15;;;;;;;63.83;30.02;;;;;;;;;;5073696;28;20036;-62
2021/12/07 13:56:41;;;;;;;;;;;;;;;;;;5073860;28;20056;-63
2021/12/07 13:59:14;;;;;;;63.65;28.42;;;;;;;;;;5073605;28;20340;-63
2021/12/07 14:01:47;;;;;;;57.88;26.38;;;;;;;;;;5055389;28;20025;-62
2021/12/07 14:04:13;;;;;;;56.25;29.20;;;;;;;;;;5055680;28;20040;-63
2021/12/07 14:06:45;;;;;;;62.63;31.38;;;;;;;;;;5073583;28;20027;-63
2021/12/07 14:09:11;;;;;;;67.38;30.75;;;;;;;;;;5073766;28;20025;-62
2021/12/07 14:11:39;;;;;;;138.95;53.13;;;;;;;;;;5073023;28;20090;-63
2021/12/07 14:14:13;;;;;;;52.47;29.15;;;;;;;;;;5072670;28;20032;-63
2021/12/07 14:16:40;;;;;;;57.10;29.10;;;;;;;;;;5072980;28;20094;-63
2021/12/07 14:19:06;;;;;;;58.28;29.65;;;;;;;;;;5072276;28;20350;-63
2021/12/07 14:21:33;;;;;;;58.25;28.98;;;;;;;;;;5054956;28;20031;-65
2021/12/07 14:24:08;;;;;;;59.72;28.25;;;;;;;;;;5072735;28;20111;-64
2021/12/07 14:26:36;;;;;;;53.35;26.50;;;;;;;;;;5073264;28;20051;-63
2021/12/07 14:29:29;;;;;;;62.20;30.15;;;;;;;;;;5054561;28;20028;-64
2021/12/07 14:31:56;;;;;;;57.58;29.17;;;;;;;;;;5068948;28;20481;-65
2021/12/07 14:34:24;;;;;;;52.00;27.20;;;;;;;;;;5054246;28;20033;-63
2021/12/07 14:36:55;;;;;;;68.75;33.75;;;;;;;;;;5073017;28;20029;-64
2021/12/07 14:39:25;;;;;;;62.28;31.10;;;;;;;;;;5072872;28;20103;-64
2021/12/07 14:42:10;;;;;;;66.68;32.83;;;;;;;;;;5054302;28;20017;-64
2021/12/07 14:44:38;;;;;;;68.47;34.22;;;;;;;;;;5072124;28;20103;-63
2021/12/07 14:47:06;;;;;;;70.93;35.38;;;;;;;;;;5052926;28;20028;-64
2021/12/07 14:49:33;;;;;;;69.38;32.50;;;;;;;;;;5072511;28;20044;-63
2021/12/07 14:52:00;;;;;;;67.90;31.73;;;;;;;;;;5072707;28;20037;-64
2021/12/07 14:54:26;;;;;;;66.05;33.28;;;;;;;;;;5072852;28;20032;-63
2021/12/07 14:56:53;;;;;;;71.13;34.22;;;;;;;;;;5054885;28;20036;-64
2021/12/07 14:59:20;;;;;;;69.13;32.05;;;;;;;;;;5054606;28;20115;-63
2021/12/07 15:01:48;;;;;;;62.42;30.23;;;;;;;;;;5072106;28;20031;-64
2021/12/07 15:04:16;;;;;;;60.65;32.63;;;;;;;;;;5072688;28;20028;-63
2021/12/07 15:06:46;;;;;;;57.30;31.27;;;;;;;;;;5054639;28;20028;-64
2021/12/07 15:09:12;;;;;;;58.47;28.83;;;;;;;;;;5072303;28;20024;-64
2021/12/07 15:11:40;;;;;;;60.50;30.35;;;;;;;;;;5072470;28;20024;-64
2021/12/07 15:14:08;;;;;;;60.53;30.85;;;;;;;;;;5072521;28;20031;-63
2021/12/07 15:16:36;;;;;;;60.08;28.83;;;;;;;;;;5072679;28;20469;-64
2021/12/07 15:19:03;;;;;;;52.20;25.92;;;;;;;;;;5072761;28;20465;-64
2021/12/07 15:21:30;;;;;;;53.17;27.27;;;;;;;;;;5072783;28;20086;-64
2021/12/07 15:23:57;;;;;;;58.33;29.58;;;;;;;;;;5054698;28;20481;-63
2021/12/07 15:26:25;;;;;;;58.15;28.77;;;;;;;;;;5072729;28;20028;-64
2021/12/07 15:29:00;;;;;;;55.60;28.35;;;;;;;;;;5054689;28;20174;-64
2021/12/07 15:31:28;;;;;;;59.20;28.55;;;;;;;;;;5075315;28;20027;-64
2021/12/07 15:33:54;;;;;;;57.42;28.30;;;;;;;;;;5058472;28;20437;-64
2021/12/07 15:36:25;;;;;;;64.85;29.80;;;;;;;;;;5076549;28;20071;-63
2021/12/07 15:39:05;;;;;;;65.90;30.38;;;;;;;;;;5076232;28;20119;-64
2021/12/07 15:41:32;;;;;;;62.85;30.92;;;;;;;;;;5058428;28;20021;-63
2021/12/07 15:43:59;;;;;;;54.85;30.13;;;;;;;;;;5058067;28;20064;-64
2021/12/07 15:46:25;;;;;;;59.63;28.48;;;;;;;;;;5076604;28;20077;-64
2021/12/07 15:48:51;;;;;;;59.90;28.40;;;;;;;;;;5076593;28;20059;-64
2021/12/07 15:51:18;;;;;;;55.45;28.95;;;;;;;;;;5075780;28;20127;-63
2021/12/07 15:53:44;;;;;;;60.28;29.23;;;;;;;;;;5076134;28;20119;-63
2021/12/07 15:56:18;;;;;;;63.45;30.48;;;;;;;;;;5057894;28;20098;-63
2021/12/07 15:58:45;;;;;;;68.60;34.75;;;;;;;;;;5058201;28;20056;-64
2021/12/07 16:01:12;;;;;;;64.30;30.35;;;;;;;;;;5076102;28;20105;-63
2021/12/07 16:03:41;;;;;;;61.28;32.40;;;;;;;;;;5076231;28;20357;-64
2021/12/07 16:06:15;;;;;;;55.08;28.95;;;;;;;;;;5075891;28;20028;-63
2021/12/07 16:08:41;;;;;;;51.22;26.67;;;;;;;;;;5057905;28;20564;-64